sensor_id;sensor_type;location;lat;lon;timestamp;P1;durP1;ratioP1;P2;durP2;ratioP2
70416;SDS011;57839;51.332;12.410;2023-07-20T00:01:02;7.55;;;5.90;;
70416;SDS011;57839;51.332;12.410;2023-07-20T00:03:27;5.63;;;4.93;;
70416;SDS011;57839;51.332;12.410;2023-07-20T00:06:04;7.55;;;5.40;;
70416;SDS011;57839;51.332;12.410;2023-07-20T00:08:50;4.88;;;4.10;;
70416;SDS011;57839;51.332;12.410;2023-07-20T00:11:16;5.13;;;4.00;;
70416;SDS011;57839;51.332;12.410;2023-07-20T00:13:42;5.30;;;3.78;;
70416;SDS011;57839;51.332;12.410;2023-07-20T00:19:14;3.95;;;3.30;;
70416;SDS011;57839;51.332;12.410;2023-07-20T00:21:39;5.20;;;3.70;;
70416;SDS011;57839;51.332;12.410;2023-07-20T00:24:08;4.78;;;3.70;;
70416;SDS011;57839;51.332;12.410;2023-07-20T00:26:34;5.28;;;3.50;;
70416;SDS011;57839;51.332;12.410;2023-07-20T00:28:59;3.95;;;3.22;;
70416;SDS011;57839;51.332;12.410;2023-07-20T00:31:43;7.15;;;4.13;;
70416;SDS011;57839;51.332;12.410;2023-07-20T00:34:11;5.60;;;3.65;;
70416;SDS011;57839;51.332;12.410;2023-07-20T00:36:37;3.45;;;3.00;;
70416;SDS011;57839;51.332;12.410;2023-07-20T00:39:03;4.65;;;3.60;;
70416;SDS011;57839;51.332;12.410;2023-07-20T00:44:31;5.50;;;3.35;;
70416;SDS011;57839;51.332;12.410;2023-07-20T00:46:56;5.47;;;3.55;;
70416;SDS011;57839;51.332;12.410;2023-07-20T00:49:22;6.80;;;3.97;;
70416;SDS011;57839;51.332;12.410;2023-07-20T00:51:49;5.63;;;3.88;;
70416;SDS011;57839;51.332;12.410;2023-07-20T00:54:29;4.35;;;3.70;;
70416;SDS011;57839;51.332;12.410;2023-07-20T00:56:58;4.13;;;3.72;;
70416;SDS011;57839;51.332;12.410;2023-07-20T00:59:25;4.72;;;4.32;;
70416;SDS011;57839;51.332;12.410;2023-07-20T01:02:09;8.07;;;5.10;;
70416;SDS011;57839;51.332;12.410;2023-07-20T01:04:34;5.95;;;4.32;;
70416;SDS011;57839;51.332;12.410;2023-07-20T01:07:01;10.02;;;6.28;;
70416;SDS011;57839;51.332;12.410;2023-07-20T01:09:35;7.57;;;4.78;;
70416;SDS011;57839;51.332;12.410;2023-07-20T01:15:26;7.55;;;3.65;;
70416;SDS011;57839;51.332;12.410;2023-07-20T01:17:52;6.00;;;4.40;;
70416;SDS011;57839;51.332;12.410;2023-07-20T01:20:18;4.13;;;3.53;;
70416;SDS011;57839;51.332;12.410;2023-07-20T01:33:47;4.43;;;3.35;;
70416;SDS011;57839;51.332;12.410;2023-07-20T01:36:14;4.60;;;3.40;;
70416;SDS011;57839;51.332;12.410;2023-07-20T01:38:42;4.13;;;3.35;;
70416;SDS011;57839;51.332;12.410;2023-07-20T01:41:07;6.70;;;3.67;;
70416;SDS011;57839;51.332;12.410;2023-07-20T01:43:52;4.35;;;3.95;;
70416;SDS011;57839;51.332;12.410;2023-07-20T01:46:36;3.75;;;2.97;;
70416;SDS011;57839;51.332;12.410;2023-07-20T01:49:02;5.10;;;3.17;;
70416;SDS011;57839;51.332;12.410;2023-07-20T01:51:27;8.55;;;3.65;;
70416;SDS011;57839;51.332;12.410;2023-07-20T01:53:52;4.00;;;3.03;;
70416;SDS011;57839;51.332;12.410;2023-07-20T01:56:18;6.90;;;3.88;;
70416;SDS011;57839;51.332;12.410;2023-07-20T01:58:44;5.57;;;3.17;;
70416;SDS011;57839;51.332;12.410;2023-07-20T02:01:09;4.18;;;3.55;;
70416;SDS011;57839;51.332;12.410;2023-07-20T02:03:35;10.40;;;8.52;;
70416;SDS011;57839;51.332;12.410;2023-07-20T02:06:00;9.50;;;7.53;;
70416;SDS011;57839;51.332;12.410;2023-07-20T02:08:26;9.95;;;6.82;;
70416;SDS011;57839;51.332;12.410;2023-07-20T02:11:10;8.48;;;5.10;;
70416;SDS011;57839;51.332;12.410;2023-07-20T02:13:35;6.10;;;4.10;;
70416;SDS011;57839;51.332;12.410;2023-07-20T02:16:19;4.60;;;3.72;;
70416;SDS011;57839;51.332;12.410;2023-07-20T02:18:45;4.03;;;3.60;;
70416;SDS011;57839;51.332;12.410;2023-07-20T02:23:54;5.20;;;3.95;;
70416;SDS011;57839;51.332;12.410;2023-07-20T02:26:25;4.65;;;4.20;;
70416;SDS011;57839;51.332;12.410;2023-07-20T02:28:53;5.30;;;4.00;;
70416;SDS011;57839;51.332;12.410;2023-07-20T02:31:18;7.35;;;4.40;;
70416;SDS011;57839;51.332;12.410;2023-07-20T02:33:44;4.68;;;4.03;;
70416;SDS011;57839;51.332;12.410;2023-07-20T02:36:09;7.78;;;7.03;;
70416;SDS011;57839;51.332;12.410;2023-07-20T02:41:47;8.73;;;6.40;;
70416;SDS011;57839;51.332;12.410;2023-07-20T02:44:13;7.20;;;5.18;;
70416;SDS011;57839;51.332;12.410;2023-07-20T02:46:39;6.85;;;4.68;;
70416;SDS011;57839;51.332;12.410;2023-07-20T02:49:05;17.70;;;12.52;;
70416;SDS011;57839;51.332;12.410;2023-07-20T02:54:28;10.52;;;5.80;;
70416;SDS011;57839;51.332;12.410;2023-07-20T02:57:14;6.70;;;5.03;;
70416;SDS011;57839;51.332;12.410;2023-07-20T02:59:39;8.93;;;5.35;;
70416;SDS011;57839;51.332;12.410;2023-07-20T03:02:05;11.90;;;7.88;;
70416;SDS011;57839;51.332;12.410;2023-07-20T03:04:30;9.18;;;5.97;;
70416;SDS011;57839;51.332;12.410;2023-07-20T03:06:56;8.02;;;5.85;;
70416;SDS011;57839;51.332;12.410;2023-07-20T03:09:54;6.90;;;5.07;;
70416;SDS011;57839;51.332;12.410;2023-07-20T03:12:24;9.23;;;6.18;;
70416;SDS011;57839;51.332;12.410;2023-07-20T03:14:50;6.95;;;4.90;;
70416;SDS011;57839;51.332;12.410;2023-07-20T03:17:16;8.27;;;5.40;;
70416;SDS011;57839;51.332;12.410;2023-07-20T03:19:41;10.13;;;5.78;;
70416;SDS011;57839;51.332;12.410;2023-07-20T03:22:08;7.45;;;5.72;;
70416;SDS011;57839;51.332;12.410;2023-07-20T03:24:33;8.43;;;5.40;;
70416;SDS011;57839;51.332;12.410;2023-07-20T03:26:59;6.50;;;5.07;;
70416;SDS011;57839;51.332;12.410;2023-07-20T03:29:40;6.35;;;4.50;;
70416;SDS011;57839;51.332;12.410;2023-07-20T03:32:12;7.15;;;4.85;;
70416;SDS011;57839;51.332;12.410;2023-07-20T03:34:38;5.43;;;4.28;;
70416;SDS011;57839;51.332;12.410;2023-07-20T03:37:13;5.75;;;3.92;;
70416;SDS011;57839;51.332;12.410;2023-07-20T03:39:51;5.82;;;4.30;;
70416;SDS011;57839;51.332;12.410;2023-07-20T03:42:27;7.00;;;3.92;;
70416;SDS011;57839;51.332;12.410;2023-07-20T03:45:24;4.57;;;3.75;;
70416;SDS011;57839;51.332;12.410;2023-07-20T03:48:16;7.10;;;3.78;;
70416;SDS011;57839;51.332;12.410;2023-07-20T03:50:53;5.95;;;4.18;;
70416;SDS011;57839;51.332;12.410;2023-07-20T03:53:20;5.47;;;4.97;;
70416;SDS011;57839;51.332;12.410;2023-07-20T03:58:30;5.50;;;3.33;;
70416;SDS011;57839;51.332;12.410;2023-07-20T04:00:57;4.78;;;3.70;;
70416;SDS011;57839;51.332;12.410;2023-07-20T04:03:22;6.15;;;3.20;;
70416;SDS011;57839;51.332;12.410;2023-07-20T04:06:12;5.63;;;4.45;;
70416;SDS011;57839;51.332;12.410;2023-07-20T04:08:39;4.68;;;3.83;;
70416;SDS011;57839;51.332;12.410;2023-07-20T04:11:05;6.00;;;3.80;;
70416;SDS011;57839;51.332;12.410;2023-07-20T04:13:49;6.43;;;3.88;;
70416;SDS011;57839;51.332;12.410;2023-07-20T04:16:15;6.22;;;3.80;;
70416;SDS011;57839;51.332;12.410;2023-07-20T04:18:40;5.70;;;4.00;;
70416;SDS011;57839;51.332;12.410;2023-07-20T04:21:26;7.13;;;4.38;;
70416;SDS011;57839;51.332;12.410;2023-07-20T04:23:52;6.00;;;4.25;;
70416;SDS011;57839;51.332;12.410;2023-07-20T04:26:17;7.53;;;4.53;;
70416;SDS011;57839;51.332;12.410;2023-07-20T04:28:43;6.10;;;3.78;;
70416;SDS011;57839;51.332;12.410;2023-07-20T04:31:37;8.30;;;5.03;;
70416;SDS011;57839;51.332;12.410;2023-07-20T04:34:13;4.25;;;3.50;;
70416;SDS011;57839;51.332;12.410;2023-07-20T04:36:39;5.20;;;4.18;;
70416;SDS011;57839;51.332;12.410;2023-07-20T04:39:05;7.95;;;4.25;;
70416;SDS011;57839;51.332;12.410;2023-07-20T04:41:33;5.65;;;3.55;;
70416;SDS011;57839;51.332;12.410;2023-07-20T04:44:10;7.25;;;4.03;;
70416;SDS011;57839;51.332;12.410;2023-07-20T04:46:43;6.97;;;4.30;;
70416;SDS011;57839;51.332;12.410;2023-07-20T04:49:08;5.75;;;3.55;;
70416;SDS011;57839;51.332;12.410;2023-07-20T04:51:34;6.82;;;4.20;;
70416;SDS011;57839;51.332;12.410;2023-07-20T04:53:59;4.97;;;4.45;;
70416;SDS011;57839;51.332;12.410;2023-07-20T04:56:25;5.30;;;3.47;;
70416;SDS011;57839;51.332;12.410;2023-07-20T04:58:50;7.18;;;4.43;;
70416;SDS011;57839;51.332;12.410;2023-07-20T05:01:16;4.85;;;3.58;;
70416;SDS011;57839;51.332;12.410;2023-07-20T05:03:41;8.77;;;4.00;;
70416;SDS011;57839;51.332;12.410;2023-07-20T05:06:07;6.00;;;4.00;;
70416;SDS011;57839;51.332;12.410;2023-07-20T05:08:32;6.57;;;4.43;;
70416;SDS011;57839;51.332;12.410;2023-07-20T05:10:59;6.43;;;4.30;;
70416;SDS011;57839;51.332;12.410;2023-07-20T05:13:25;5.05;;;3.95;;
70416;SDS011;57839;51.332;12.410;2023-07-20T05:16:19;5.97;;;3.78;;
70416;SDS011;57839;51.332;12.410;2023-07-20T05:18:44;7.03;;;4.40;;
70416;SDS011;57839;51.332;12.410;2023-07-20T05:21:10;9.85;;;4.07;;
70416;SDS011;57839;51.332;12.410;2023-07-20T05:23:36;6.97;;;4.10;;
70416;SDS011;57839;51.332;12.410;2023-07-20T05:26:01;4.22;;;3.47;;
70416;SDS011;57839;51.332;12.410;2023-07-20T05:28:27;7.40;;;3.33;;
70416;SDS011;57839;51.332;12.410;2023-07-20T05:30:53;8.02;;;3.97;;
70416;SDS011;57839;51.332;12.410;2023-07-20T05:33:19;8.60;;;3.88;;
70416;SDS011;57839;51.332;12.410;2023-07-20T05:35:45;5.45;;;3.33;;
70416;SDS011;57839;51.332;12.410;2023-07-20T05:38:11;5.68;;;3.58;;
70416;SDS011;57839;51.332;12.410;2023-07-20T05:40:37;5.55;;;4.38;;
70416;SDS011;57839;51.332;12.410;2023-07-20T05:43:04;5.90;;;3.97;;
70416;SDS011;57839;51.332;12.410;2023-07-20T05:45:30;7.93;;;4.05;;
70416;SDS011;57839;51.332;12.410;2023-07-20T05:47:56;5.50;;;3.50;;
70416;SDS011;57839;51.332;12.410;2023-07-20T05:50:21;7.03;;;3.53;;
70416;SDS011;57839;51.332;12.410;2023-07-20T05:52:47;5.32;;;3.83;;
70416;SDS011;57839;51.332;12.410;2023-07-20T05:55:14;6.20;;;3.42;;
70416;SDS011;57839;51.332;12.410;2023-07-20T05:57:40;5.93;;;3.88;;
70416;SDS011;57839;51.332;12.410;2023-07-20T06:00:07;7.15;;;4.38;;
70416;SDS011;57839;51.332;12.410;2023-07-20T06:02:35;5.85;;;3.63;;
70416;SDS011;57839;51.332;12.410;2023-07-20T06:05:04;5.78;;;3.30;;
70416;SDS011;57839;51.332;12.410;2023-07-20T06:07:31;5.45;;;3.40;;
70416;SDS011;57839;51.332;12.410;2023-07-20T06:09:56;4.53;;;3.83;;
70416;SDS011;57839;51.332;12.410;2023-07-20T06:12:23;7.50;;;4.22;;
70416;SDS011;57839;51.332;12.410;2023-07-20T06:14:49;5.03;;;3.13;;
70416;SDS011;57839;51.332;12.410;2023-07-20T06:17:14;4.05;;;3.53;;
70416;SDS011;57839;51.332;12.410;2023-07-20T06:19:40;6.10;;;3.17;;
70416;SDS011;57839;51.332;12.410;2023-07-20T06:22:05;10.10;;;3.45;;
70416;SDS011;57839;51.332;12.410;2023-07-20T06:24:31;8.73;;;3.83;;
70416;SDS011;57839;51.332;12.410;2023-07-20T06:26:56;7.57;;;3.13;;
70416;SDS011;57839;51.332;12.410;2023-07-20T06:29:22;4.70;;;3.67;;
70416;SDS011;57839;51.332;12.410;2023-07-20T06:31:47;3.10;;;2.70;;
70416;SDS011;57839;51.332;12.410;2023-07-20T06:34:13;4.57;;;2.92;;
70416;SDS011;57839;51.332;12.410;2023-07-20T06:36:43;5.13;;;2.90;;
70416;SDS011;57839;51.332;12.410;2023-07-20T06:39:14;5.40;;;3.42;;
70416;SDS011;57839;51.332;12.410;2023-07-20T06:41:39;5.97;;;4.00;;
70416;SDS011;57839;51.332;12.410;2023-07-20T06:44:05;6.20;;;3.88;;
70416;SDS011;57839;51.332;12.410;2023-07-20T06:46:48;4.60;;;4.20;;
70416;SDS011;57839;51.332;12.410;2023-07-20T06:49:24;6.32;;;4.22;;
70416;SDS011;57839;51.332;12.410;2023-07-20T06:51:51;6.15;;;4.10;;
70416;SDS011;57839;51.332;12.410;2023-07-20T06:54:16;4.68;;;4.25;;
70416;SDS011;57839;51.332;12.410;2023-07-20T06:56:43;5.28;;;4.78;;
70416;SDS011;57839;51.332;12.410;2023-07-20T06:59:23;5.30;;;4.60;;
70416;SDS011;57839;51.332;12.410;2023-07-20T07:01:51;4.97;;;3.95;;
70416;SDS011;57839;51.332;12.410;2023-07-20T07:04:21;5.95;;;4.10;;
70416;SDS011;57839;51.332;12.410;2023-07-20T07:06:46;5.63;;;4.03;;
70416;SDS011;57839;51.332;12.410;2023-07-20T07:09:12;5.22;;;3.97;;
70416;SDS011;57839;51.332;12.410;2023-07-20T07:11:43;3.80;;;3.40;;
70416;SDS011;57839;51.332;12.410;2023-07-20T07:14:17;4.82;;;3.95;;
70416;SDS011;57839;51.332;12.410;2023-07-20T07:16:46;5.88;;;4.18;;
70416;SDS011;57839;51.332;12.410;2023-07-20T07:19:22;5.63;;;4.97;;
70416;SDS011;57839;51.332;12.410;2023-07-20T07:21:51;5.40;;;4.40;;
70416;SDS011;57839;51.332;12.410;2023-07-20T07:24:30;4.93;;;4.32;;
70416;SDS011;57839;51.332;12.410;2023-07-20T07:26:59;5.55;;;4.93;;
70416;SDS011;57839;51.332;12.410;2023-07-20T07:29:42;5.97;;;5.13;;
70416;SDS011;57839;51.332;12.410;2023-07-20T07:32:10;6.35;;;5.10;;
70416;SDS011;57839;51.332;12.410;2023-07-20T07:34:36;6.25;;;5.07;;
70416;SDS011;57839;51.332;12.410;2023-07-20T07:37:02;6.10;;;5.50;;
70416;SDS011;57839;51.332;12.410;2023-07-20T07:39:41;5.10;;;4.70;;
70416;SDS011;57839;51.332;12.410;2023-07-20T07:42:15;6.43;;;4.68;;
70416;SDS011;57839;51.332;12.410;2023-07-20T07:44:41;6.03;;;4.95;;
70416;SDS011;57839;51.332;12.410;2023-07-20T07:47:22;4.97;;;4.50;;
70416;SDS011;57839;51.332;12.410;2023-07-20T07:49:48;5.28;;;4.80;;
70416;SDS011;57839;51.332;12.410;2023-07-20T07:52:25;6.57;;;4.90;;
70416;SDS011;57839;51.332;12.410;2023-07-20T07:54:51;5.93;;;4.25;;
70416;SDS011;57839;51.332;12.410;2023-07-20T07:57:16;5.18;;;4.68;;
70416;SDS011;57839;51.332;12.410;2023-07-20T07:59:42;7.28;;;5.68;;
70416;SDS011;57839;51.332;12.410;2023-07-20T08:02:07;6.68;;;5.53;;
70416;SDS011;57839;51.332;12.410;2023-07-20T08:04:33;6.32;;;5.13;;
70416;SDS011;57839;51.332;12.410;2023-07-20T08:06:59;5.97;;;5.10;;
70416;SDS011;57839;51.332;12.410;2023-07-20T08:09:24;5.45;;;4.57;;
70416;SDS011;57839;51.332;12.410;2023-07-20T08:11:50;5.72;;;5.22;;
70416;SDS011;57839;51.332;12.410;2023-07-20T08:14:16;5.53;;;5.03;;
70416;SDS011;57839;51.332;12.410;2023-07-20T08:16:41;5.07;;;4.43;;
70416;SDS011;57839;51.332;12.410;2023-07-20T08:19:08;5.45;;;4.93;;
70416;SDS011;57839;51.332;12.410;2023-07-20T08:21:33;5.88;;;5.28;;
70416;SDS011;57839;51.332;12.410;2023-07-20T08:23:59;6.32;;;5.10;;
70416;SDS011;57839;51.332;12.410;2023-07-20T08:26:24;8.68;;;5.65;;
70416;SDS011;57839;51.332;12.410;2023-07-20T08:29:17;5.55;;;5.00;;
70416;SDS011;57839;51.332;12.410;2023-07-20T08:34:37;5.88;;;5.15;;
70416;SDS011;57839;51.332;12.410;2023-07-20T08:37:17;5.88;;;5.38;;
70416;SDS011;57839;51.332;12.410;2023-07-20T08:39:42;6.95;;;6.30;;
70416;SDS011;57839;51.332;12.410;2023-07-20T08:42:15;6.57;;;5.97;;
70416;SDS011;57839;51.332;12.410;2023-07-20T08:44:41;7.00;;;6.22;;
70416;SDS011;57839;51.332;12.410;2023-07-20T08:47:12;5.80;;;5.30;;
70416;SDS011;57839;51.332;12.410;2023-07-20T08:49:39;6.47;;;5.88;;
70416;SDS011;57839;51.332;12.410;2023-07-20T08:52:04;5.28;;;4.75;;
70416;SDS011;57839;51.332;12.410;2023-07-20T08:54:40;4.65;;;4.28;;
70416;SDS011;57839;51.332;12.410;2023-07-20T08:57:07;4.72;;;4.20;;
70416;SDS011;57839;51.332;12.410;2023-07-20T08:59:37;4.50;;;3.90;;
70416;SDS011;57839;51.332;12.410;2023-07-20T09:02:03;3.80;;;3.50;;
70416;SDS011;57839;51.332;12.410;2023-07-20T09:04:30;4.80;;;4.40;;
70416;SDS011;57839;51.332;12.410;2023-07-20T09:06:55;5.47;;;4.38;;
70416;SDS011;57839;51.332;12.410;2023-07-20T09:09:21;4.28;;;3.97;;
70416;SDS011;57839;51.332;12.410;2023-07-20T09:11:49;5.82;;;4.30;;
70416;SDS011;57839;51.332;12.410;2023-07-20T09:14:15;5.80;;;4.60;;
70416;SDS011;57839;51.332;12.410;2023-07-20T09:16:54;4.38;;;3.97;;
70416;SDS011;57839;51.332;12.410;2023-07-20T09:19:20;4.70;;;3.92;;
70416;SDS011;57839;51.332;12.410;2023-07-20T09:21:54;4.75;;;4.25;;
70416;SDS011;57839;51.332;12.410;2023-07-20T09:24:33;3.58;;;3.28;;
70416;SDS011;57839;51.332;12.410;2023-07-20T09:26:59;5.00;;;3.67;;
70416;SDS011;57839;51.332;12.410;2023-07-20T09:29:26;3.53;;;3.22;;
70416;SDS011;57839;51.332;12.410;2023-07-20T09:32:04;5.20;;;3.78;;
70416;SDS011;57839;51.332;12.410;2023-07-20T09:34:30;7.00;;;3.65;;
70416;SDS011;57839;51.332;12.410;2023-07-20T09:36:59;4.10;;;3.30;;
70416;SDS011;57839;51.332;12.410;2023-07-20T09:39:26;4.70;;;3.50;;
70416;SDS011;57839;51.332;12.410;2023-07-20T09:41:52;4.80;;;3.28;;
70416;SDS011;57839;51.332;12.410;2023-07-20T09:44:17;4.53;;;3.63;;
70416;SDS011;57839;51.332;12.410;2023-07-20T09:46:45;4.35;;;3.95;;
70416;SDS011;57839;51.332;12.410;2023-07-20T09:49:11;4.78;;;3.53;;
70416;SDS011;57839;51.332;12.410;2023-07-20T09:51:38;4.55;;;4.15;;
70416;SDS011;57839;51.332;12.410;2023-07-20T09:54:04;4.22;;;3.83;;
70416;SDS011;57839;51.332;12.410;2023-07-20T09:56:30;5.10;;;4.60;;
70416;SDS011;57839;51.332;12.410;2023-07-20T09:58:56;8.38;;;5.53;;
70416;SDS011;57839;51.332;12.410;2023-07-20T10:01:22;7.78;;;5.25;;
70416;SDS011;57839;51.332;12.410;2023-07-20T10:03:49;9.35;;;5.28;;
70416;SDS011;57839;51.332;12.410;2023-07-20T10:06:18;7.15;;;5.38;;
70416;SDS011;57839;51.332;12.410;2023-07-20T10:08:46;8.35;;;6.00;;
70416;SDS011;57839;51.332;12.410;2023-07-20T10:11:12;6.10;;;5.25;;
70416;SDS011;57839;51.332;12.410;2023-07-20T10:13:41;6.53;;;4.88;;
70416;SDS011;57839;51.332;12.410;2023-07-20T10:16:10;7.35;;;5.97;;
70416;SDS011;57839;51.332;12.410;2023-07-20T10:18:55;8.10;;;6.78;;
70416;SDS011;57839;51.332;12.410;2023-07-20T10:21:59;6.88;;;5.97;;
70416;SDS011;57839;51.332;12.410;2023-07-20T10:24:28;7.68;;;6.97;;
70416;SDS011;57839;51.332;12.410;2023-07-20T10:26:55;8.18;;;7.38;;
70416;SDS011;57839;51.332;12.410;2023-07-20T10:29:21;6.60;;;5.90;;
70416;SDS011;57839;51.332;12.410;2023-07-20T10:31:47;6.95;;;6.43;;
70416;SDS011;57839;51.332;12.410;2023-07-20T10:34:13;7.78;;;7.00;;
70416;SDS011;57839;51.332;12.410;2023-07-20T10:36:45;6.22;;;5.72;;
70416;SDS011;57839;51.332;12.410;2023-07-20T10:39:23;6.95;;;5.63;;
70416;SDS011;57839;51.332;12.410;2023-07-20T10:41:53;5.70;;;5.25;;
70416;SDS011;57839;51.332;12.410;2023-07-20T10:44:37;5.72;;;4.38;;
70416;SDS011;57839;51.332;12.410;2023-07-20T10:47:08;3.83;;;3.53;;
70416;SDS011;57839;51.332;12.410;2023-07-20T10:49:34;3.75;;;3.45;;
70416;SDS011;57839;51.332;12.410;2023-07-20T10:52:04;4.22;;;3.80;;
70416;SDS011;57839;51.332;12.410;2023-07-20T11:00:08;9.60;;;4.82;;
70416;SDS011;57839;51.332;12.410;2023-07-20T11:02:48;8.73;;;4.30;;
70416;SDS011;57839;51.332;12.410;2023-07-20T11:08:04;4.80;;;3.10;;
70416;SDS011;57839;51.332;12.410;2023-07-20T11:10:36;5.03;;;3.60;;
70416;SDS011;57839;51.332;12.410;2023-07-20T11:13:17;5.20;;;3.42;;
70416;SDS011;57839;51.332;12.410;2023-07-20T11:15:46;3.30;;;3.00;;
70416;SDS011;57839;51.332;12.410;2023-07-20T11:18:21;3.65;;;3.05;;
70416;SDS011;57839;51.332;12.410;2023-07-20T11:20:50;2.83;;;2.63;;
70416;SDS011;57839;51.332;12.410;2023-07-20T11:23:19;3.20;;;2.92;;
70416;SDS011;57839;51.332;12.410;2023-07-20T11:25:45;3.58;;;2.83;;
70416;SDS011;57839;51.332;12.410;2023-07-20T11:28:11;3.17;;;2.10;;
70416;SDS011;57839;51.332;12.410;2023-07-20T11:30:44;2.60;;;2.40;;
70416;SDS011;57839;51.332;12.410;2023-07-20T11:33:15;3.55;;;2.42;;
70416;SDS011;57839;51.332;12.410;2023-07-20T11:35:48;3.72;;;2.42;;
70416;SDS011;57839;51.332;12.410;2023-07-20T11:38:20;2.38;;;2.17;;
70416;SDS011;57839;51.332;12.410;2023-07-20T11:40:49;5.97;;;2.70;;
70416;SDS011;57839;51.332;12.410;2023-07-20T11:43:15;2.88;;;2.40;;
70416;SDS011;57839;51.332;12.410;2023-07-20T11:45:40;4.43;;;2.90;;
70416;SDS011;57839;51.332;12.410;2023-07-20T11:48:06;2.38;;;2.17;;
70416;SDS011;57839;51.332;12.410;2023-07-20T11:50:32;2.20;;;2.00;;
70416;SDS011;57839;51.332;12.410;2023-07-20T11:53:04;2.65;;;2.35;;
70416;SDS011;57839;51.332;12.410;2023-07-20T11:55:33;3.00;;;2.33;;
70416;SDS011;57839;51.332;12.410;2023-07-20T11:58:02;4.00;;;2.40;;
70416;SDS011;57839;51.332;12.410;2023-07-20T12:00:38;4.20;;;2.40;;
70416;SDS011;57839;51.332;12.410;2023-07-20T12:03:06;2.95;;;2.63;;
70416;SDS011;57839;51.332;12.410;2023-07-20T12:05:32;2.85;;;2.65;;
70416;SDS011;57839;51.332;12.410;2023-07-20T12:07:58;3.20;;;2.20;;
70416;SDS011;57839;51.332;12.410;2023-07-20T12:10:25;3.45;;;2.67;;
70416;SDS011;57839;51.332;12.410;2023-07-20T12:13:02;3.50;;;2.70;;
70416;SDS011;57839;51.332;12.410;2023-07-20T12:15:32;3.15;;;2.05;;
70416;SDS011;57839;51.332;12.410;2023-07-20T12:17:58;3.58;;;3.13;;
70416;SDS011;57839;51.332;12.410;2023-07-20T12:20:31;2.92;;;2.60;;
70416;SDS011;57839;51.332;12.410;2023-07-20T12:23:00;4.00;;;2.80;;
70416;SDS011;57839;51.332;12.410;2023-07-20T12:28:10;3.13;;;2.55;;
70416;SDS011;57839;51.332;12.410;2023-07-20T12:30:37;2.85;;;2.65;;
70416;SDS011;57839;51.332;12.410;2023-07-20T12:33:03;3.13;;;2.58;;
70416;SDS011;57839;51.332;12.410;2023-07-20T12:35:30;3.88;;;2.58;;
70416;SDS011;57839;51.332;12.410;2023-07-20T12:37:56;2.60;;;2.38;;
70416;SDS011;57839;51.332;12.410;2023-07-20T12:40:22;2.35;;;2.00;;
70416;SDS011;57839;51.332;12.410;2023-07-20T12:42:47;2.10;;;1.75;;
70416;SDS011;57839;51.332;12.410;2023-07-20T12:45:15;2.55;;;2.00;;
70416;SDS011;57839;51.332;12.410;2023-07-20T12:47:42;2.88;;;1.67;;
70416;SDS011;57839;51.332;12.410;2023-07-20T12:50:11;2.47;;;1.40;;
70416;SDS011;57839;51.332;12.410;2023-07-20T12:52:47;2.05;;;1.35;;
70416;SDS011;57839;51.332;12.410;2023-07-20T12:55:13;1.92;;;1.40;;
70416;SDS011;57839;51.332;12.410;2023-07-20T12:57:49;1.65;;;1.55;;
70416;SDS011;57839;51.332;12.410;2023-07-20T13:00:18;1.20;;;1.10;;
70416;SDS011;57839;51.332;12.410;2023-07-20T13:02:44;2.72;;;1.30;;
70416;SDS011;57839;51.332;12.410;2023-07-20T13:05:09;2.05;;;1.20;;
70416;SDS011;57839;51.332;12.410;2023-07-20T13:07:36;2.08;;;1.25;;
70416;SDS011;57839;51.332;12.410;2023-07-20T13:10:02;1.00;;;0.90;;
70416;SDS011;57839;51.332;12.410;2023-07-20T13:12:29;1.75;;;0.98;;
70416;SDS011;57839;51.332;12.410;2023-07-20T13:14:56;2.35;;;1.02;;
70416;SDS011;57839;51.332;12.410;2023-07-20T13:17:22;1.75;;;1.10;;
70416;SDS011;57839;51.332;12.410;2023-07-20T13:19:48;1.75;;;1.00;;
70416;SDS011;57839;51.332;12.410;2023-07-20T13:22:14;1.33;;;1.10;;
70416;SDS011;57839;51.332;12.410;2023-07-20T13:24:40;3.20;;;1.27;;
70416;SDS011;57839;51.332;12.410;2023-07-20T13:27:06;1.35;;;1.17;;
70416;SDS011;57839;51.332;12.410;2023-07-20T13:29:32;1.38;;;1.27;;
70416;SDS011;57839;51.332;12.410;2023-07-20T13:31:58;1.40;;;1.30;;
70416;SDS011;57839;51.332;12.410;2023-07-20T13:34:25;2.38;;;1.20;;
70416;SDS011;57839;51.332;12.410;2023-07-20T13:36:55;1.30;;;1.20;;
70416;SDS011;57839;51.332;12.410;2023-07-20T13:39:31;1.40;;;1.30;;
70416;SDS011;57839;51.332;12.410;2023-07-20T13:42:00;1.70;;;1.60;;
70416;SDS011;57839;51.332;12.410;2023-07-20T13:44:33;2.72;;;2.00;;
70416;SDS011;57839;51.332;12.410;2023-07-20T13:46:59;2.20;;;1.80;;
70416;SDS011;57839;51.332;12.410;2023-07-20T13:49:25;1.90;;;1.75;;
70416;SDS011;57839;51.332;12.410;2023-07-20T13:51:51;1.70;;;1.60;;
70416;SDS011;57839;51.332;12.410;2023-07-20T13:54:16;1.98;;;1.88;;
70416;SDS011;57839;51.332;12.410;2023-07-20T13:56:42;4.55;;;2.30;;
70416;SDS011;57839;51.332;12.410;2023-07-20T13:59:07;1.90;;;1.80;;
70416;SDS011;57839;51.332;12.410;2023-07-20T14:01:33;2.10;;;1.90;;
70416;SDS011;57839;51.332;12.410;2023-07-20T14:03:59;2.88;;;2.00;;
70416;SDS011;57839;51.332;12.410;2023-07-20T14:06:25;2.85;;;1.90;;
70416;SDS011;57839;51.332;12.410;2023-07-20T14:08:50;2.40;;;2.20;;
70416;SDS011;57839;51.332;12.410;2023-07-20T14:11:18;2.03;;;1.90;;
70416;SDS011;57839;51.332;12.410;2023-07-20T14:13:43;3.13;;;2.10;;
70416;SDS011;57839;51.332;12.410;2023-07-20T14:16:09;3.15;;;2.25;;
70416;SDS011;57839;51.332;12.410;2023-07-20T14:18:35;2.70;;;2.50;;
70416;SDS011;57839;51.332;12.410;2023-07-20T14:21:01;2.08;;;1.98;;
70416;SDS011;57839;51.332;12.410;2023-07-20T14:23:28;2.58;;;2.20;;
70416;SDS011;57839;51.332;12.410;2023-07-20T14:25:54;2.42;;;2.20;;
70416;SDS011;57839;51.332;12.410;2023-07-20T14:28:20;2.25;;;2.13;;
70416;SDS011;57839;51.332;12.410;2023-07-20T14:30:46;3.38;;;2.30;;
70416;SDS011;57839;51.332;12.410;2023-07-20T14:33:11;2.60;;;2.40;;
70416;SDS011;57839;51.332;12.410;2023-07-20T14:35:37;2.30;;;2.10;;
70416;SDS011;57839;51.332;12.410;2023-07-20T14:38:02;2.53;;;2.33;;
70416;SDS011;57839;51.332;12.410;2023-07-20T14:40:28;2.53;;;2.33;;
70416;SDS011;57839;51.332;12.410;2023-07-20T14:43:00;3.85;;;2.10;;
70416;SDS011;57839;51.332;12.410;2023-07-20T14:45:29;3.38;;;2.25;;
70416;SDS011;57839;51.332;12.410;2023-07-20T14:47:54;3.80;;;2.67;;
70416;SDS011;57839;51.332;12.410;2023-07-20T14:50:20;3.28;;;2.35;;
70416;SDS011;57839;51.332;12.410;2023-07-20T14:52:46;2.22;;;2.10;;
70416;SDS011;57839;51.332;12.410;2023-07-20T14:55:12;2.58;;;2.30;;
70416;SDS011;57839;51.332;12.410;2023-07-20T14:57:38;2.28;;;2.08;;
70416;SDS011;57839;51.332;12.410;2023-07-20T15:00:04;2.15;;;1.90;;
70416;SDS011;57839;51.332;12.410;2023-07-20T15:02:40;2.38;;;2.17;;
70416;SDS011;57839;51.332;12.410;2023-07-20T15:05:07;2.55;;;2.30;;
70416;SDS011;57839;51.332;12.410;2023-07-20T15:07:37;1.90;;;1.80;;
70416;SDS011;57839;51.332;12.410;2023-07-20T15:10:03;2.92;;;2.08;;
70416;SDS011;57839;51.332;12.410;2023-07-20T15:12:30;2.22;;;2.03;;
70416;SDS011;57839;51.332;12.410;2023-07-20T15:15:12;2.22;;;2.10;;
70416;SDS011;57839;51.332;12.410;2023-07-20T15:17:40;1.80;;;1.70;;
70416;SDS011;57839;51.332;12.410;2023-07-20T15:20:07;2.65;;;2.45;;
70416;SDS011;57839;51.332;12.410;2023-07-20T15:22:35;3.95;;;1.90;;
70416;SDS011;57839;51.332;12.410;2023-07-20T15:25:03;2.40;;;2.10;;
70416;SDS011;57839;51.332;12.410;2023-07-20T15:27:29;3.75;;;1.80;;
70416;SDS011;57839;51.332;12.410;2023-07-20T15:29:56;3.50;;;1.50;;